createdAt,value
2022-12-12T00:02:25.452Z,18.03
2022-12-12T00:04:51.723Z,17.93
2022-12-12T00:07:17.940Z,17.83
2022-12-12T00:09:44.108Z,17.74
2022-12-12T00:12:10.308Z,17.65
2022-12-12T00:14:36.526Z,17.60
2022-12-12T00:17:02.827Z,17.57
2022-12-12T00:19:29.021Z,17.54
2022-12-12T00:21:55.279Z,17.50
2022-12-12T00:24:21.566Z,17.44
2022-12-12T00:26:47.774Z,17.36
2022-12-12T00:29:14.069Z,17.29
2022-12-12T00:31:40.335Z,17.21
2022-12-12T00:34:06.548Z,17.20
2022-12-12T00:36:32.708Z,17.24
2022-12-12T00:38:58.921Z,17.33
2022-12-12T00:41:25.122Z,17.42
2022-12-12T00:43:51.306Z,17.52
2022-12-12T00:46:17.535Z,17.62
2022-12-12T00:48:43.881Z,17.69
2022-12-12T00:51:10.133Z,17.77
2022-12-12T00:53:36.346Z,17.86
2022-12-12T00:56:02.658Z,17.92
2022-12-12T00:58:28.857Z,17.97
2022-12-12T01:00:55.023Z,18.04
2022-12-12T01:03:21.443Z,18.10
2022-12-12T01:05:47.712Z,18.17
2022-12-12T01:08:13.970Z,18.22
2022-12-12T01:10:40.172Z,18.27
2022-12-12T01:13:06.435Z,18.31
2022-12-12T01:15:32.631Z,18.35
2022-12-12T01:17:58.854Z,18.37
2022-12-12T01:20:25.160Z,18.40
2022-12-12T01:22:51.508Z,18.39
2022-12-12T01:25:17.702Z,18.37
2022-12-12T01:27:43.919Z,18.31
2022-12-12T01:30:10.131Z,18.25
2022-12-12T01:32:36.346Z,18.18
2022-12-12T01:35:02.585Z,18.13
2022-12-12T01:37:28.778Z,18.06
2022-12-12T01:39:54.999Z,17.97
2022-12-12T01:42:21.243Z,17.88
2022-12-12T01:44:47.438Z,17.77
2022-12-12T01:47:13.673Z,17.66
2022-12-12T01:49:39.946Z,17.55
2022-12-12T01:52:06.186Z,17.45
2022-12-12T01:54:32.360Z,17.38
2022-12-12T01:56:58.546Z,17.36
2022-12-12T01:59:24.736Z,17.35
2022-12-12T02:01:50.973Z,17.29
2022-12-12T02:04:17.180Z,17.23
2022-12-12T02:06:43.417Z,17.16
2022-12-12T02:09:09.683Z,17.11
2022-12-12T02:11:37.037Z,17.15
2022-12-12T02:14:03.253Z,17.22
2022-12-12T02:16:29.620Z,17.28
2022-12-12T02:18:55.886Z,17.36
2022-12-12T02:21:22.086Z,17.42
2022-12-12T02:23:48.317Z,17.49
2022-12-12T02:26:14.564Z,17.60
2022-12-12T02:28:40.810Z,17.68
2022-12-12T02:31:07.064Z,17.73
2022-12-12T02:33:33.306Z,17.80
2022-12-12T02:35:59.595Z,17.84
2022-12-12T02:38:25.868Z,17.88
2022-12-12T02:40:52.123Z,17.95
2022-12-12T02:43:21.415Z,18.01
2022-12-12T02:45:47.652Z,18.04
2022-12-12T02:48:13.841Z,18.11
2022-12-12T02:50:40.034Z,18.16
2022-12-12T02:53:06.235Z,18.21
2022-12-12T02:55:36.296Z,18.27
2022-12-12T02:58:02.826Z,18.28
2022-12-12T03:00:29.212Z,18.24
2022-12-12T03:02:55.532Z,18.20
2022-12-12T03:05:24.636Z,18.15
2022-12-12T03:07:50.874Z,18.09
2022-12-12T03:10:17.187Z,18.03
2022-12-12T03:12:43.379Z,17.96
2022-12-12T03:15:09.562Z,17.88
2022-12-12T03:17:35.880Z,17.78
2022-12-12T03:20:02.074Z,17.69
2022-12-12T03:22:28.306Z,17.55
2022-12-12T03:24:54.484Z,17.42
2022-12-12T03:27:20.687Z,17.30
2022-12-12T03:29:46.908Z,17.19
2022-12-12T03:32:13.136Z,17.09
2022-12-12T03:34:39.426Z,17.03
2022-12-12T03:37:05.593Z,17.00
2022-12-12T03:39:31.788Z,16.96
2022-12-12T03:41:57.969Z,16.88
2022-12-12T03:44:24.180Z,16.86
2022-12-12T03:46:50.382Z,16.89
2022-12-12T03:49:16.629Z,16.94
2022-12-12T03:51:42.865Z,17.04
2022-12-12T03:54:09.080Z,17.11
2022-12-12T03:56:35.276Z,17.17
2022-12-12T03:59:01.552Z,17.12
2022-12-12T04:01:27.966Z,17.33
2022-12-12T04:03:54.223Z,17.39
2022-12-12T04:06:20.497Z,17.45
2022-12-12T04:08:46.699Z,17.47
2022-12-12T04:11:14.033Z,17.45
2022-12-12T04:13:40.176Z,17.45
2022-12-12T04:16:06.475Z,17.40
2022-12-12T04:18:32.750Z,17.36
2022-12-12T04:20:59.066Z,17.34
2022-12-12T04:23:28.214Z,17.36
2022-12-12T04:25:54.497Z,17.40
2022-12-12T04:28:20.699Z,17.47
2022-12-12T04:30:46.947Z,17.53
2022-12-12T04:33:13.178Z,17.60
2022-12-12T04:35:39.395Z,17.67
2022-12-12T04:38:05.599Z,17.75
2022-12-12T04:40:31.775Z,17.80
2022-12-12T04:42:57.981Z,17.84
2022-12-12T04:45:24.189Z,17.88
2022-12-12T04:47:50.339Z,17.94
2022-12-12T04:50:16.613Z,17.98
2022-12-12T04:52:42.906Z,18.01
2022-12-12T04:55:09.184Z,18.03
2022-12-12T04:57:35.425Z,18.04
2022-12-12T05:00:03.955Z,18.05
2022-12-12T05:02:30.183Z,18.06
2022-12-12T05:04:56.392Z,18.03
2022-12-12T05:07:22.684Z,17.97
2022-12-12T05:09:48.873Z,17.91
2022-12-12T05:12:15.038Z,17.83
2022-12-12T05:14:41.240Z,17.76
2022-12-12T05:17:07.454Z,17.67
2022-12-12T05:19:33.663Z,17.58
2022-12-12T05:21:59.896Z,17.47
2022-12-12T05:24:26.179Z,17.34
2022-12-12T05:26:52.414Z,17.22
2022-12-12T05:29:18.619Z,17.11
2022-12-12T05:31:44.908Z,17.08
2022-12-12T05:34:11.127Z,17.05
2022-12-12T05:36:37.314Z,16.97
2022-12-12T05:39:03.562Z,16.89
2022-12-12T05:41:29.857Z,16.90
2022-12-12T05:43:56.044Z,16.97
2022-12-12T05:46:22.225Z,17.06
2022-12-12T05:48:48.610Z,17.15
2022-12-12T05:51:14.837Z,17.28
2022-12-12T05:53:43.063Z,17.40
2022-12-12T05:56:09.534Z,17.52
2022-12-12T05:58:35.720Z,17.61
2022-12-12T06:01:03.469Z,17.69
2022-12-12T06:03:29.806Z,17.77
2022-12-12T06:05:56.069Z,17.86
2022-12-12T06:08:25.017Z,17.91
2022-12-12T06:10:51.594Z,17.92
2022-12-12T06:13:17.805Z,18.00
2022-12-12T06:15:44.188Z,18.06
2022-12-12T06:18:10.501Z,18.08
2022-12-12T06:20:36.763Z,18.10
2022-12-12T06:23:02.985Z,18.13
2022-12-12T06:25:29.257Z,18.16
2022-12-12T06:27:55.576Z,18.15
2022-12-12T06:30:21.785Z,18.11
2022-12-12T06:32:47.974Z,18.07
2022-12-12T06:35:14.514Z,18.02
2022-12-12T06:37:41.021Z,17.93
2022-12-12T06:40:07.242Z,17.85
2022-12-12T06:42:33.492Z,17.76
2022-12-12T06:44:59.746Z,17.69
2022-12-12T06:47:25.976Z,17.59
2022-12-12T06:49:52.163Z,17.49
2022-12-12T06:52:19.485Z,17.41
2022-12-12T06:54:45.725Z,17.35
2022-12-12T06:57:12.009Z,17.32
2022-12-12T06:59:38.222Z,17.27
2022-12-12T07:02:05.455Z,17.18
2022-12-12T07:04:31.656Z,17.07
2022-12-12T07:06:57.815Z,16.94
2022-12-12T07:09:24.025Z,16.91
2022-12-12T07:11:50.276Z,16.83
2022-12-12T07:14:16.523Z,16.79
2022-12-12T07:16:42.737Z,16.71
2022-12-12T07:19:08.933Z,16.69
2022-12-12T07:21:35.259Z,16.75
2022-12-12T07:24:01.460Z,16.84
2022-12-12T07:26:27.659Z,16.93
2022-12-12T07:28:53.902Z,16.99
2022-12-12T07:31:20.227Z,17.02
2022-12-12T07:33:46.454Z,17.03
2022-12-12T07:36:12.697Z,17.02
2022-12-12T07:38:38.909Z,17.02
2022-12-12T07:41:06.580Z,17.06
2022-12-12T07:43:34.016Z,17.10
2022-12-12T07:46:01.884Z,17.17
2022-12-12T07:48:28.174Z,17.24
2022-12-12T07:50:54.455Z,17.35
2022-12-12T07:53:20.685Z,17.46
2022-12-12T07:55:46.851Z,17.57
2022-12-12T07:58:13.028Z,17.65
2022-12-12T08:00:39.233Z,17.71
2022-12-12T08:03:05.403Z,17.75
2022-12-12T08:05:31.600Z,17.76
2022-12-12T08:07:57.835Z,17.83
2022-12-12T08:10:24.088Z,17.91
2022-12-12T08:12:50.270Z,17.98
2022-12-12T08:15:16.512Z,18.04
2022-12-12T08:17:42.749Z,18.06
2022-12-12T08:20:09.070Z,18.09
2022-12-12T08:22:35.265Z,18.15
2022-12-12T08:25:01.456Z,18.19
2022-12-12T08:27:27.690Z,18.22
2022-12-12T08:29:53.897Z,18.20
2022-12-12T08:32:20.374Z,18.18
2022-12-12T08:34:46.568Z,18.18
2022-12-12T08:37:12.784Z,18.14
2022-12-12T08:39:39.052Z,18.07
2022-12-12T08:42:05.217Z,18.02
2022-12-12T08:44:31.400Z,17.96
2022-12-12T08:47:00.423Z,17.89
2022-12-12T08:49:26.652Z,17.79
2022-12-12T08:51:52.842Z,17.72
2022-12-12T08:54:19.091Z,17.64
2022-12-12T08:56:45.312Z,17.60
2022-12-12T08:59:11.515Z,17.58
2022-12-12T09:01:37.951Z,17.58
2022-12-12T09:04:04.351Z,17.61
2022-12-12T09:06:30.539Z,17.60
2022-12-12T09:08:56.745Z,17.55
2022-12-12T09:11:22.972Z,17.51
2022-12-12T09:13:49.215Z,17.48
2022-12-12T09:16:15.519Z,17.47
2022-12-12T09:18:48.029Z,17.47
2022-12-12T09:21:17.787Z,17.49
2022-12-12T09:23:44.020Z,17.49
2022-12-12T09:26:10.203Z,17.53
2022-12-12T09:28:36.405Z,17.61
2022-12-12T09:31:02.731Z,17.74
2022-12-12T09:33:28.916Z,17.87
2022-12-12T09:35:55.157Z,18.05
2022-12-12T09:38:21.400Z,18.21
2022-12-12T09:40:47.920Z,18.40
2022-12-12T09:43:14.132Z,18.59
2022-12-12T09:45:40.447Z,18.71
2022-12-12T09:48:06.688Z,18.85
2022-12-12T09:50:32.862Z,19.01
2022-12-12T09:52:59.096Z,19.18
2022-12-12T09:55:25.287Z,19.30
2022-12-12T09:57:51.455Z,19.38
2022-12-12T10:00:17.687Z,19.42
2022-12-12T10:02:43.854Z,19.43
2022-12-12T10:05:10.153Z,19.41
2022-12-12T10:07:36.353Z,19.38
2022-12-12T10:10:02.565Z,19.35
2022-12-12T10:12:28.734Z,19.30
2022-12-12T10:14:54.959Z,19.27
2022-12-12T10:17:21.149Z,19.25
2022-12-12T10:19:47.312Z,19.24
2022-12-12T10:22:15.101Z,19.28
2022-12-12T10:24:41.465Z,19.29
2022-12-12T10:27:07.691Z,19.28
2022-12-12T10:29:39.626Z,19.27
2022-12-12T10:32:07.376Z,19.26
2022-12-12T10:34:33.590Z,19.26
2022-12-12T10:36:59.879Z,19.25
2022-12-12T10:39:26.073Z,19.24
2022-12-12T10:41:52.436Z,19.24
2022-12-12T10:44:18.659Z,19.24
2022-12-12T10:46:44.904Z,19.23
2022-12-12T10:49:11.159Z,19.21
2022-12-12T10:51:37.422Z,19.21
2022-12-12T10:54:03.602Z,19.19
2022-12-12T10:56:29.766Z,19.20
2022-12-12T10:58:56.026Z,19.20
2022-12-12T11:01:38.546Z,19.19
2022-12-12T11:04:08.415Z,19.18
2022-12-12T11:06:34.652Z,19.18
2022-12-12T11:09:00.865Z,19.18
2022-12-12T11:11:27.051Z,19.19
2022-12-12T11:13:53.243Z,19.18
2022-12-12T11:16:19.576Z,19.18
2022-12-12T11:18:45.813Z,19.17
2022-12-12T11:21:11.983Z,19.16
2022-12-12T11:23:38.187Z,19.16
2022-12-12T11:26:04.397Z,19.16
2022-12-12T11:28:30.628Z,19.15
2022-12-12T11:30:56.786Z,19.16
2022-12-12T11:33:22.976Z,19.14
2022-12-12T11:35:49.208Z,19.10
2022-12-12T11:38:15.426Z,19.05
2022-12-12T11:40:41.617Z,19.04
2022-12-12T11:43:07.799Z,19.03
2022-12-12T11:45:34.037Z,19.03
2022-12-12T11:48:00.249Z,19.02
2022-12-12T11:50:26.436Z,19.02
2022-12-12T11:52:52.694Z,18.99
2022-12-12T11:55:18.877Z,18.98
2022-12-12T11:57:45.062Z,18.97
2022-12-12T12:00:11.394Z,18.95
2022-12-12T12:02:37.592Z,18.95
2022-12-12T12:05:03.823Z,18.93
2022-12-12T12:07:29.999Z,18.94
2022-12-12T12:09:56.209Z,18.92
2022-12-12T12:12:22.397Z,18.90
2022-12-12T12:14:48.599Z,18.89
2022-12-12T12:17:14.879Z,18.86
2022-12-12T12:19:41.106Z,18.83
2022-12-12T12:22:07.298Z,18.91
2022-12-12T12:24:33.476Z,19.06
2022-12-12T12:26:59.748Z,19.41
2022-12-12T12:29:26.011Z,19.04
2022-12-12T12:31:52.202Z,18.91
2022-12-12T12:34:18.463Z,18.82
2022-12-12T12:36:44.661Z,18.79
2022-12-12T12:39:10.847Z,18.77
2022-12-12T12:41:37.085Z,18.73
2022-12-12T12:44:03.308Z,18.71
2022-12-12T12:46:29.815Z,18.71
2022-12-12T12:48:56.228Z,18.72
2022-12-12T12:51:22.433Z,18.71
2022-12-12T12:53:48.629Z,18.73
2022-12-12T12:56:14.937Z,18.76
2022-12-12T12:58:41.123Z,18.78
2022-12-12T13:01:07.371Z,19.08
2022-12-12T13:03:33.589Z,20.06
2022-12-12T13:05:59.781Z,21.89
2022-12-12T13:08:26.001Z,22.70
2022-12-12T13:10:53.283Z,23.17
2022-12-12T13:13:19.508Z,23.69
2022-12-12T13:15:45.718Z,23.93
2022-12-12T13:18:11.936Z,24.08
2022-12-12T13:20:38.267Z,23.74
2022-12-12T13:23:04.487Z,22.61
2022-12-12T13:25:30.670Z,21.22
2022-12-12T13:27:56.873Z,20.67
2022-12-12T13:30:23.071Z,20.99
2022-12-12T13:32:49.331Z,22.40
2022-12-12T13:35:15.812Z,23.52
2022-12-12T13:37:42.214Z,23.60
2022-12-12T13:40:08.411Z,23.18
2022-12-12T13:42:34.631Z,22.70
2022-12-12T13:45:00.833Z,22.48
2022-12-12T13:47:26.996Z,22.28
2022-12-12T13:49:53.217Z,21.65
2022-12-12T13:52:19.445Z,21.16
2022-12-12T13:54:45.676Z,20.88
2022-12-12T13:57:11.900Z,20.71
2022-12-12T13:59:38.078Z,20.56
2022-12-12T14:02:04.367Z,20.41
2022-12-12T14:04:30.594Z,20.26
2022-12-12T14:06:56.818Z,20.12
2022-12-12T14:09:31.191Z,19.99
2022-12-12T14:12:07.500Z,19.86
2022-12-12T14:14:33.683Z,19.73
2022-12-12T14:16:59.858Z,19.62
2022-12-12T14:19:26.064Z,19.53
2022-12-12T14:21:52.266Z,19.47
2022-12-12T14:24:18.479Z,19.40
2022-12-12T14:26:44.702Z,19.33
2022-12-12T14:29:10.888Z,19.23
2022-12-12T14:31:37.117Z,19.13
2022-12-12T14:34:03.335Z,19.01
2022-12-12T14:36:29.653Z,18.90
2022-12-12T14:38:55.931Z,18.80
2022-12-12T14:41:22.307Z,18.72
2022-12-12T14:43:48.543Z,18.64
2022-12-12T14:46:34.758Z,18.57
2022-12-12T14:49:00.962Z,18.47
2022-12-12T14:51:29.846Z,18.40
2022-12-12T14:53:56.412Z,18.32
2022-12-12T14:56:22.626Z,18.24
2022-12-12T14:58:48.821Z,18.16
2022-12-12T15:01:15.014Z,18.09
2022-12-12T15:03:41.290Z,18.00
2022-12-12T15:06:07.548Z,17.92
2022-12-12T15:08:33.862Z,17.85
2022-12-12T15:11:00.319Z,17.82
2022-12-12T15:13:26.548Z,17.77
2022-12-12T15:15:52.826Z,17.82
2022-12-12T15:18:19.051Z,17.95
2022-12-12T15:20:45.239Z,18.12
2022-12-12T15:23:11.411Z,18.27
2022-12-12T15:25:37.597Z,18.42
2022-12-12T15:28:03.769Z,18.59
2022-12-12T15:30:30.046Z,18.69
2022-12-12T15:32:56.439Z,18.77
2022-12-12T15:35:22.610Z,18.87
2022-12-12T15:37:48.835Z,18.97
2022-12-12T15:40:15.433Z,19.06
2022-12-12T15:42:41.908Z,19.12
2022-12-12T15:45:08.116Z,19.18
2022-12-12T15:47:34.333Z,19.23
2022-12-12T15:50:00.704Z,19.28
2022-12-12T15:52:26.898Z,19.29
2022-12-12T15:54:53.162Z,19.28
2022-12-12T15:57:19.541Z,19.24
2022-12-12T15:59:45.906Z,19.19
2022-12-12T16:02:12.293Z,19.14
2022-12-12T16:04:38.495Z,19.07
2022-12-12T16:07:04.833Z,19.00
2022-12-12T16:09:30.999Z,18.88
2022-12-12T16:11:57.249Z,18.77
2022-12-12T16:14:23.441Z,18.65
2022-12-12T16:16:49.643Z,18.53
2022-12-12T16:19:15.840Z,18.42
2022-12-12T16:21:42.037Z,18.33
2022-12-12T16:24:08.246Z,18.24
2022-12-12T16:26:34.447Z,18.16
2022-12-12T16:29:00.634Z,18.11
2022-12-12T16:31:26.918Z,18.05
2022-12-12T16:33:53.175Z,17.97
2022-12-12T16:36:19.438Z,17.90
2022-12-12T16:38:45.676Z,17.81
2022-12-12T16:41:12.019Z,17.70
2022-12-12T16:43:38.192Z,17.63
2022-12-12T16:46:04.435Z,17.56
2022-12-12T16:48:30.700Z,17.49
2022-12-12T16:50:56.898Z,17.43
2022-12-12T16:53:23.127Z,17.36
2022-12-12T16:55:49.325Z,17.31
2022-12-12T16:58:15.506Z,17.27
2022-12-12T17:00:41.811Z,17.25
2022-12-12T17:03:08.112Z,17.32
2022-12-12T17:05:34.329Z,17.39
2022-12-12T17:08:00.584Z,17.47
2022-12-12T17:10:26.897Z,17.58
2022-12-12T17:12:53.138Z,17.71
2022-12-12T17:15:19.310Z,17.81
2022-12-12T17:17:45.546Z,17.88
2022-12-12T17:20:12.124Z,17.94
2022-12-12T17:22:38.505Z,18.01
2022-12-12T17:25:04.772Z,18.09
2022-12-12T17:27:31.007Z,18.13
2022-12-12T17:29:57.209Z,18.18
2022-12-12T17:32:24.655Z,18.26
2022-12-12T17:34:50.924Z,18.33
2022-12-12T17:37:17.181Z,18.37
2022-12-12T17:39:43.461Z,18.40
2022-12-12T17:42:09.881Z,18.42
2022-12-12T17:44:36.089Z,18.44
2022-12-12T17:47:02.264Z,18.48
2022-12-12T17:49:28.742Z,18.50
2022-12-12T17:51:55.049Z,18.51
2022-12-12T17:54:21.253Z,18.50
2022-12-12T17:56:47.446Z,18.46
2022-12-12T17:59:13.785Z,18.40
2022-12-12T18:01:39.986Z,18.34
2022-12-12T18:04:06.222Z,18.26
2022-12-12T18:06:32.544Z,18.17
2022-12-12T18:08:58.807Z,18.07
2022-12-12T18:11:24.966Z,17.93
2022-12-12T18:13:51.205Z,17.81
2022-12-12T18:16:17.463Z,17.72
2022-12-12T18:18:43.811Z,17.63
2022-12-12T18:21:10.553Z,17.56
2022-12-12T18:23:38.976Z,17.52
2022-12-12T18:26:05.193Z,17.47
2022-12-12T18:28:31.467Z,17.41
2022-12-12T18:30:57.776Z,17.35
2022-12-12T18:33:23.983Z,17.25
2022-12-12T18:35:50.220Z,17.16
2022-12-12T18:38:16.516Z,17.07
2022-12-12T18:40:42.731Z,17.00
2022-12-12T18:43:08.906Z,16.92
2022-12-12T18:45:35.253Z,16.84
2022-12-12T18:48:01.450Z,16.78
2022-12-12T18:50:27.705Z,16.75
2022-12-12T18:52:53.951Z,16.77
2022-12-12T18:55:20.167Z,16.83
2022-12-12T18:57:46.428Z,16.88
2022-12-12T19:00:12.904Z,16.96
2022-12-12T19:02:39.370Z,17.03
2022-12-12T19:05:05.606Z,17.13
2022-12-12T19:07:31.803Z,17.22
2022-12-12T19:09:58.033Z,17.30
2022-12-12T19:12:24.194Z,17.40
2022-12-12T19:15:15.877Z,17.52
2022-12-12T19:17:36.812Z,17.65
2022-12-12T19:20:03.015Z,17.73
2022-12-12T19:22:44.834Z,17.81
2022-12-12T19:25:11.995Z,17.88
2022-12-12T19:27:38.238Z,17.91
2022-12-12T19:30:04.440Z,17.95
2022-12-12T19:32:30.630Z,18.02
2022-12-12T19:34:56.866Z,18.07
2022-12-12T19:37:23.078Z,18.09
2022-12-12T19:39:49.293Z,18.13
2022-12-12T19:42:15.572Z,18.18
2022-12-12T19:44:43.532Z,18.22
2022-12-12T19:47:10.122Z,18.23
2022-12-12T19:49:39.114Z,18.22
2022-12-12T19:52:10.566Z,18.18
2022-12-12T19:54:40.000Z,18.13
2022-12-12T19:57:06.224Z,18.06
2022-12-12T19:59:32.487Z,17.98
2022-12-12T20:01:59.118Z,17.90
2022-12-12T20:04:25.303Z,17.81
2022-12-12T20:06:51.511Z,17.73
2022-12-12T20:09:17.716Z,17.63
2022-12-12T20:11:44.016Z,17.52
2022-12-12T20:14:10.283Z,17.45
2022-12-12T20:16:36.480Z,17.43
2022-12-12T20:19:02.664Z,17.39
2022-12-12T20:24:15.118Z,17.24
2022-12-12T20:26:41.299Z,17.15
2022-12-12T20:29:07.510Z,17.05
2022-12-12T20:31:33.804Z,16.97
2022-12-12T20:34:00.041Z,16.92
2022-12-12T20:36:26.232Z,16.87
2022-12-12T20:38:52.508Z,16.88
2022-12-12T20:41:18.848Z,16.98
2022-12-12T20:43:45.157Z,17.10
2022-12-12T20:46:11.597Z,17.21
2022-12-12T20:48:37.835Z,17.33
2022-12-12T20:51:04.024Z,17.43
2022-12-12T20:53:36.155Z,17.47
2022-12-12T20:56:06.446Z,17.53
2022-12-12T20:58:36.836Z,17.60
2022-12-12T21:01:03.085Z,17.57
2022-12-12T21:03:29.429Z,17.70
2022-12-12T21:05:58.791Z,17.76
2022-12-12T21:08:25.112Z,17.80
2022-12-12T21:10:51.397Z,17.87
2022-12-12T21:13:17.638Z,17.90
2022-12-12T21:15:43.919Z,17.93
2022-12-12T21:18:10.183Z,17.98
2022-12-12T21:20:36.481Z,18.02
2022-12-12T21:23:02.726Z,18.05
2022-12-12T21:25:28.921Z,18.08
2022-12-12T21:27:55.163Z,18.14
2022-12-12T21:30:21.382Z,18.16
2022-12-12T21:32:47.592Z,18.17
2022-12-12T21:35:14.038Z,18.21
2022-12-12T21:37:40.808Z,18.24
2022-12-12T21:40:07.097Z,18.27
2022-12-12T21:42:33.263Z,18.30
2022-12-12T21:44:59.645Z,18.26
2022-12-12T21:47:25.880Z,18.20
2022-12-12T21:49:52.098Z,18.15
2022-12-12T21:52:18.270Z,18.07
2022-12-12T21:54:44.478Z,17.99
2022-12-12T21:57:10.802Z,17.90
2022-12-12T21:59:37.008Z,17.81
2022-12-12T22:02:03.281Z,17.69
2022-12-12T22:04:29.513Z,17.62
2022-12-12T22:06:55.782Z,17.53
2022-12-12T22:09:22.006Z,17.45
2022-12-12T22:11:49.655Z,17.41
2022-12-12T22:14:18.740Z,17.36
2022-12-12T22:16:44.979Z,17.30
2022-12-12T22:19:11.257Z,17.24
2022-12-12T22:21:37.636Z,17.15
2022-12-12T22:24:03.885Z,17.05
2022-12-12T22:26:30.086Z,16.95
2022-12-12T22:28:56.447Z,16.87
2022-12-12T22:31:22.776Z,16.81
2022-12-12T22:33:48.973Z,16.72
2022-12-12T22:36:15.152Z,16.74
2022-12-12T22:38:41.353Z,16.81
2022-12-12T22:41:07.733Z,16.93
2022-12-12T22:43:33.894Z,17.04
2022-12-12T22:46:00.143Z,17.10
2022-12-12T22:48:26.346Z,17.16
2022-12-12T22:50:52.664Z,17.25
2022-12-12T22:53:18.844Z,17.33
2022-12-12T22:55:45.081Z,17.39
2022-12-12T22:58:11.272Z,17.44
2022-12-12T23:00:37.464Z,17.48
2022-12-12T23:03:03.660Z,17.55
2022-12-12T23:05:30.069Z,17.61
2022-12-12T23:07:56.507Z,17.64
2022-12-12T23:10:23.018Z,17.70
2022-12-12T23:12:49.252Z,17.75
2022-12-12T23:15:15.577Z,17.79
2022-12-12T23:17:41.933Z,17.84
2022-12-12T23:20:08.155Z,17.91
2022-12-12T23:22:34.370Z,17.94
2022-12-12T23:25:00.599Z,17.99
2022-12-12T23:27:26.790Z,18.03
2022-12-12T23:29:53.053Z,17.98
2022-12-12T23:32:19.308Z,18.06
2022-12-12T23:34:45.494Z,18.07
2022-12-12T23:37:11.663Z,18.07
2022-12-12T23:39:37.868Z,18.05
2022-12-12T23:42:04.073Z,17.98
2022-12-12T23:44:30.268Z,17.92
2022-12-12T23:46:56.464Z,17.87
2022-12-12T23:49:22.659Z,17.80
2022-12-12T23:51:48.965Z,17.72
2022-12-12T23:54:15.351Z,17.61
2022-12-12T23:56:41.600Z,17.49
2022-12-12T23:59:08.515Z,17.36
